Time;durP1;ratioP1;P1;durP2;ratioP2;P2;SDS_P1;SDS_P2;PMS_P1;PMS_P2;Temp;Humidity;BMP_temperature;BMP_pressure;BME280_temperature;BME280_humidity;BME280_pressure;Samples;Min_cycle;Max_cycle;Signal;HPM_P1;HPM_P2
2023/05/10 00:00:44;;;;;;;10.70;6.20;;;;;;;8.59;52.83;100383.75;129640;1262;114725;-66
2023/05/10 00:03:47;;;;;;;10.60;5.80;;;;;;;8.53;53.11;100385.20;129283;1265;114872;-65
2023/05/10 00:06:49;;;;;;;8.90;5.50;;;;;;;8.48;53.15;100384.69;129640;1264;114750;-64
2023/05/10 00:09:51;;;;;;;18.90;7.90;;;;;;;8.43;53.18;100378.09;129520;1271;114764;-64
2023/05/10 00:12:54;;;;;;;7.90;5.80;;;;;;;8.38;53.49;100377.56;129600;1270;114760;-64
2023/05/10 00:15:56;;;;;;;10.60;6.30;;;;;;;8.33;53.55;100369.41;129655;1265;115155;-66
2023/05/10 00:18:58;;;;;;;10.30;6.50;;;;;;;8.29;53.72;100373.32;129726;1263;114747;-63
2023/05/10 00:22:01;;;;;;;8.60;5.70;;;;;;;8.25;54.03;100370.10;129581;1270;114816;-64
2023/05/10 00:25:04;;;;;;;13.20;6.20;;;;;;;8.19;54.19;100371.00;129615;1262;114719;-66
2023/05/10 00:28:06;;;;;;;9.50;5.30;;;;;;;8.15;54.17;100368.70;129447;1281;114761;-62
2023/05/10 00:31:08;;;;;;;9.10;6.00;;;;;;;8.11;54.24;100370.61;129396;1268;114696;-64
2023/05/10 00:34:11;;;;;;;12.50;6.40;;;;;;;8.05;54.42;100369.23;129602;1271;114839;-63
2023/05/10 00:37:13;;;;;;;10.80;6.30;;;;;;;8.00;54.49;100366.40;129271;1276;115511;-63
2023/05/10 00:40:15;;;;;;;12.00;6.00;;;;;;;7.95;54.41;100365.17;129521;1263;114705;-62
2023/05/10 00:43:17;;;;;;;12.70;6.10;;;;;;;7.91;54.76;100367.09;129536;1262;115177;-61
2023/05/10 00:46:20;;;;;;;13.50;6.30;;;;;;;7.87;54.74;100362.27;129521;1271;114780;-68
2023/05/10 00:49:22;;;;;;;18.10;6.70;;;;;;;7.82;55.14;100361.73;129501;1281;115421;-64
2023/05/10 00:52:25;;;;;;;13.30;6.90;;;;;;;7.77;55.19;100361.02;129433;1262;114769;-66
2023/05/10 00:55:28;;;;;;;13.40;6.90;;;;;;;7.72;55.00;100364.21;129668;1262;114798;-63
2023/05/10 00:58:30;;;;;;;12.70;6.60;;;;;;;7.68;55.50;100360.28;129666;1264;115125;-65
2023/05/10 01:01:33;;;;;;;10.30;6.40;;;;;;;7.64;55.33;100358.83;129846;1279;114714;-65
2023/05/10 01:04:37;;;;;;;10.30;6.50;;;;;;;7.59;55.59;100352.96;129527;1280;114798;-64
2023/05/10 01:07:39;;;;;;;13.20;7.10;;;;;;;7.55;55.94;100354.19;129600;1270;129285;-64
2023/05/10 01:10:42;;;;;;;9.30;6.60;;;;;;;7.51;55.73;100349.90;129344;1270;226616;-66
2023/05/10 01:13:50;;;;;;;14.80;7.20;;;;;;;7.47;56.09;100350.39;129636;1280;114817;-65
2023/05/10 01:16:53;;;;;;;16.70;7.60;;;;;;;7.43;56.24;100349.29;129400;1265;114859;-66
2023/05/10 01:19:55;;;;;;;11.20;6.80;;;;;;;7.39;56.34;100348.36;129556;1267;115151;-64
2023/05/10 01:23:34;;;;;;;12.50;6.30;;;;;;;7.34;56.42;100346.42;129382;1264;114801;-65
2023/05/10 01:27:06;;;;;;;10.90;7.20;;;;;;;7.28;56.81;100345.00;129232;1259;115623;-67
2023/05/10 01:30:17;;;;;;;16.40;7.70;;;;;;;7.24;56.94;100345.15;129239;1275;114814;-69
2023/05/10 01:33:24;;;;;;;10.70;6.30;;;;;;;7.21;57.07;100343.13;129333;1273;114999;-68
2023/05/10 01:36:33;;;;;;;11.80;6.90;;;;;;;7.17;57.11;100344.50;129313;1274;115019;-63
2023/05/10 01:39:50;;;;;;;12.20;7.10;;;;;;;7.14;57.28;100348.86;129473;1263;127663;-67
2023/05/10 01:42:58;;;;;;;15.00;7.30;;;;;;;7.10;57.30;100345.98;129332;1276;115330;-65
2023/05/10 01:46:10;;;;;;;11.50;7.70;;;;;;;7.06;57.42;100353.95;129591;1281;114739;-66
2023/05/10 01:49:20;;;;;;;11.30;6.90;;;;;;;7.00;57.69;100348.80;129482;1281;114710;-63
2023/05/10 01:52:27;;;;;;;12.40;6.20;;;;;;;6.96;57.82;100348.79;129377;1280;116371;-64
2023/05/10 01:55:32;;;;;;;10.40;6.70;;;;;;;6.92;57.92;100346.77;129665;1280;128542;-63
2023/05/10 01:58:36;;;;;;;10.20;6.70;;;;;;;6.88;58.10;100344.77;129599;1257;115266;-62
2023/05/10 02:01:40;;;;;;;9.00;6.60;;;;;;;6.85;58.22;100343.98;129591;1263;114677;-62
2023/05/10 02:04:43;;;;;;;11.70;7.10;;;;;;;6.81;58.31;100342.70;129568;1261;114846;-66
2023/05/10 02:07:45;;;;;;;11.40;7.60;;;;;;;6.77;58.35;100341.59;129434;1281;115343;-62
2023/05/10 02:10:51;;;;;;;12.50;7.30;;;;;;;6.74;58.52;100343.45;129538;1280;115091;-66
2023/05/10 02:13:55;;;;;;;9.70;7.10;;;;;;;6.71;58.73;100337.69;129462;1278;115187;-62
2023/05/10 02:16:58;;;;;;;9.60;6.80;;;;;;;6.68;58.82;100332.99;129527;1262;114741;-63
2023/05/10 02:20:03;;;;;;;11.50;6.80;;;;;;;6.66;59.08;100334.13;129285;1276;115405;-66
2023/05/10 02:23:07;;;;;;;12.10;7.60;;;;;;;6.64;59.12;100330.84;129456;1280;114980;-63
2023/05/10 02:26:10;;;;;;;10.80;7.70;;;;;;;6.61;59.18;100330.23;129367;1280;128516;-66
2023/05/10 02:29:14;;;;;;;10.30;7.10;;;;;;;6.59;59.36;100327.09;129412;1280;115368;-60
2023/05/10 02:32:17;;;;;;;14.90;7.70;;;;;;;6.57;59.29;100324.65;129365;1280;114878;-63
2023/05/10 02:35:20;;;;;;;10.80;6.30;;;;;;;6.55;59.61;100324.18;129678;1277;114678;-65
2023/05/10 02:38:24;;;;;;;10.40;6.90;;;;;;;6.53;59.76;100323.91;129567;1280;115227;-65
2023/05/10 02:41:27;;;;;;;14.40;7.90;;;;;;;6.51;59.82;100326.46;129580;1280;127938;-64
2023/05/10 02:44:30;;;;;;;13.20;7.30;;;;;;;6.49;59.81;100324.38;129543;1263;114734;-67
2023/05/10 02:47:33;;;;;;;13.60;6.70;;;;;;;6.48;59.92;100325.49;129619;1280;114734;-64
2023/05/10 02:50:35;;;;;;;16.60;7.90;;;;;;;6.47;60.15;100323.23;129470;1273;115393;-63
2023/05/10 02:53:41;;;;;;;13.90;7.40;;;;;;;6.46;60.22;100324.85;129468;1281;114806;-65
2023/05/10 02:56:45;;;;;;;;;;;;;;;6.46;60.42;100321.47;129247;1268;127891;-65
2023/05/10 02:59:47;;;;;;;11.80;7.20;;;;;;;6.46;60.61;100323.07;129215;1267;115296;-63
2023/05/10 03:02:49;;;;;;;13.40;7.10;;;;;;;6.47;60.70;100325.33;129486;1257;114833;-66
2023/05/10 03:05:55;;;;;;;17.00;7.10;;;;;;;6.48;60.76;100325.66;129505;1280;114808;-67
2023/05/10 03:08:58;;;;;;;11.20;7.40;;;;;;;6.50;60.65;100325.27;129282;1275;114841;-64
2023/05/10 03:12:42;;;;;;;13.20;7.70;;;;;;;6.51;60.68;100323.27;129465;1281;115104;-62
2023/05/10 03:15:58;;;;;;;14.40;7.50;;;;;;;6.54;61.16;100325.64;129259;1264;128593;-64
2023/05/10 03:19:20;;;;;;;;;;;;;;;6.57;60.75;100323.96;129431;1281;115334;-67
2023/05/10 03:22:31;;;;;;;10.60;7.90;;;;;;;6.59;60.95;100324.96;129465;1263;115029;-67
2023/05/10 03:25:34;;;;;;;12.10;7.00;;;;;;;6.62;60.87;100323.08;129285;1274;114798;-67
2023/05/10 03:28:38;;;;;;;11.80;7.50;;;;;;;6.66;60.91;100324.73;129430;1273;114751;-66
2023/05/10 03:31:41;;;;;;;15.30;7.30;;;;;;;6.70;61.08;100326.18;129463;1264;128479;-66
2023/05/10 03:34:43;;;;;;;12.10;7.10;;;;;;;6.75;61.02;100322.13;129556;1263;114742;-67
2023/05/10 03:37:46;;;;;;;10.70;6.70;;;;;;;6.79;61.02;100321.81;129588;1280;114735;-67
2023/05/10 03:40:48;;;;;;;11.20;7.20;;;;;;;6.84;60.97;100322.02;129718;1281;114870;-67
2023/05/10 03:43:51;;;;;;;15.20;7.50;;;;;;;6.90;61.18;100322.71;129439;1263;114705;-65
2023/05/10 03:46:53;;;;;;;14.30;7.80;;;;;;;6.95;61.26;100320.74;129613;1274;115163;-67
2023/05/10 03:49:55;;;;;;;18.00;7.80;;;;;;;7.02;61.30;100317.50;129684;1267;114798;-68
2023/05/10 03:52:58;;;;;;;13.10;7.50;;;;;;;7.08;61.08;100318.01;129735;1280;115101;-66
2023/05/10 03:56:00;;;;;;;15.40;7.80;;;;;;;7.13;60.88;100314.43;129569;1258;115196;-69
2023/05/10 03:59:07;;;;;;;11.10;7.60;;;;;;;7.20;61.04;100315.47;129649;1261;115167;-68
2023/05/10 04:02:09;;;;;;;13.40;7.40;;;;;;;7.25;60.88;100317.21;129528;1258;114793;-70
2023/05/10 04:05:12;;;;;;;13.40;7.00;;;;;;;7.33;60.98;100311.98;129817;1280;114722;-69
2023/05/10 04:08:16;;;;;;;16.50;7.30;;;;;;;7.40;60.68;100312.61;129695;1280;115304;-69
2023/05/10 04:11:18;;;;;;;11.80;7.80;;;;;;;7.48;60.84;100310.90;129772;1260;114739;-69
2023/05/10 04:14:21;;;;;;;15.60;7.80;;;;;;;7.55;60.51;100316.32;129764;1261;114829;-68
2023/05/10 04:17:23;;;;;;;12.60;7.10;;;;;;;7.63;60.48;100319.59;129854;1264;114803;-68
2023/05/10 04:20:26;;;;;;;11.20;6.50;;;;;;;7.72;60.38;100319.27;129591;1261;114833;-68
2023/05/10 04:23:28;;;;;;;14.50;7.70;;;;;;;7.80;60.17;100316.49;129889;1258;114757;-68
2023/05/10 04:26:34;;;;;;;12.60;6.60;;;;;;;7.89;60.10;100313.65;129894;1258;115434;-68
2023/05/10 04:29:38;;;;;;;11.70;7.60;;;;;;;7.99;60.41;100313.23;129619;1257;116344;-68
2023/05/10 04:32:40;;;;;;;12.70;6.50;;;;;;;8.11;60.06;100313.70;129635;1260;114844;-68
2023/05/10 04:35:42;;;;;;;13.00;6.60;;;;;;;8.23;60.13;100309.67;129624;1257;114726;-69
2023/05/10 04:38:44;;;;;;;13.30;6.90;;;;;;;8.38;59.75;100307.80;129760;1260;115157;-71
2023/05/10 04:41:47;;;;;;;12.40;7.40;;;;;;;8.59;59.86;100304.35;129661;1261;114717;-68
2023/05/10 04:44:49;;;;;;;17.70;7.40;;;;;;;8.95;59.77;100303.90;129518;1262;114802;-69
2023/05/10 04:47:52;;;;;;;16.10;7.30;;;;;;;9.94;59.76;100303.40;129501;1258;114818;-69
2023/05/10 04:50:54;;;;;;;16.10;7.20;;;;;;;11.19;58.80;100298.53;129480;1263;114742;-69
2023/05/10 04:53:57;;;;;;;15.20;7.40;;;;;;;12.47;57.38;100295.94;129513;1265;115049;-69
2023/05/10 04:56:59;;;;;;;9.30;5.90;;;;;;;13.66;56.12;100291.70;129570;1264;114800;-68
2023/05/10 05:00:01;;;;;;;12.10;6.30;;;;;;;14.75;54.90;100293.04;129903;1272;114786;-63
2023/05/10 05:03:04;;;;;;;9.90;6.20;;;;;;;15.74;53.93;100292.12;129487;1267;114843;-66
2023/05/10 05:06:07;;;;;;;12.80;6.90;;;;;;;16.57;52.48;100286.86;129455;1262;114780;-64
2023/05/10 05:09:10;;;;;;;9.50;5.70;;;;;;;17.33;51.35;100283.80;129499;1269;115119;-70
2023/05/10 05:12:13;;;;;;;11.80;6.60;;;;;;;18.01;50.00;100281.55;129545;1258;115351;-69
2023/05/10 05:15:16;;;;;;;9.10;5.60;;;;;;;18.60;48.83;100281.27;129654;1262;114772;-71
2023/05/10 05:18:19;;;;;;;12.10;6.20;;;;;;;18.99;47.15;100283.06;129612;1280;114785;-69
2023/05/10 05:21:22;;;;;;;10.70;6.10;;;;;;;19.33;47.02;100278.70;129669;1280;114726;-66
2023/05/10 05:24:24;;;;;;;9.90;6.50;;;;;;;19.62;46.38;100280.56;129604;1280;128943;-63
2023/05/10 05:27:27;;;;;;;13.20;7.20;;;;;;;19.87;45.34;100277.11;129821;1280;114770;-70
2023/05/10 05:30:29;;;;;;;14.80;6.90;;;;;;;20.17;44.60;100274.29;129780;1260;115087;-71
2023/05/10 05:33:31;;;;;;;12.10;5.70;;;;;;;20.44;44.16;100270.76;129655;1280;114728;-72
2023/05/10 05:36:40;;;;;;;11.60;5.50;;;;;;;20.64;43.02;100271.83;129800;1280;114751;-70
2023/05/10 05:39:42;;;;;;;10.60;6.10;;;;;;;20.59;41.11;100270.13;129661;1261;114718;-74
2023/05/10 05:42:45;;;;;;;9.30;5.60;;;;;;;20.40;40.20;100268.95;129531;1280;114791;-75
2023/05/10 05:45:47;;;;;;;10.00;6.30;;;;;;;20.20;39.10;100269.48;129916;1273;114857;-70
2023/05/10 05:48:50;;;;;;;10.90;5.40;;;;;;;20.12;39.56;100277.44;129890;1270;114799;-69
2023/05/10 05:51:52;;;;;;;12.90;5.20;;;;;;;20.02;38.42;100278.36;129559;1261;114785;-64
2023/05/10 05:54:57;;;;;;;6.80;5.20;;;;;;;20.03;39.03;100279.34;129815;1260;114754;-64
2023/05/10 05:57:59;;;;;;;7.80;5.00;;;;;;;20.13;38.29;100276.11;129991;1272;114788;-62
2023/05/10 06:01:02;;;;;;;5.40;4.80;;;;;;;20.37;38.66;100271.52;129930;1280;114773;-62
2023/05/10 06:04:04;;;;;;;17.00;5.80;;;;;;;20.64;37.77;100268.91;129716;1259;114721;-67
2023/05/10 06:07:07;;;;;;;7.00;4.90;;;;;;;20.85;36.86;100270.27;129643;1261;115269;-62
2023/05/10 06:10:10;;;;;;;7.40;4.90;;;;;;;21.06;37.26;100269.71;129850;1260;115329;-62
2023/05/10 06:13:12;;;;;;;14.60;6.10;;;;;;;21.47;37.48;100273.13;129555;1261;114728;-61
2023/05/10 06:16:17;;;;;;;9.90;5.80;;;;;;;21.89;37.03;100270.19;129772;1278;114738;-63
2023/05/10 06:19:19;;;;;;;;;;;;;;;22.35;36.76;100271.56;129779;1273;114764;-66
2023/05/10 06:22:22;;;;;;;7.50;4.50;;;;;;;22.74;36.19;100271.16;129398;1281;114731;-62
2023/05/10 06:25:25;;;;;;;10.10;5.00;;;;;;;23.13;36.43;100271.73;129419;1281;115081;-62
2023/05/10 06:28:27;;;;;;;9.00;6.10;;;;;;;23.50;36.12;100274.09;129753;1278;114884;-63
2023/05/10 06:31:29;;;;;;;9.90;5.70;;;;;;;23.78;35.13;100273.42;129488;1257;114896;-63
2023/05/10 06:34:32;;;;;;;8.50;4.80;;;;;;;23.90;34.70;100270.27;129516;1271;114777;-62
2023/05/10 06:37:34;;;;;;;11.60;5.30;;;;;;;23.89;34.10;100267.66;129520;1262;114761;-64
2023/05/10 06:40:36;;;;;;;6.50;4.50;;;;;;;23.80;34.40;100264.89;129568;1257;115412;-65
2023/05/10 06:43:41;;;;;;;11.50;5.00;;;;;;;23.77;33.45;100258.34;129424;1258;115265;-62
2023/05/10 06:46:43;;;;;;;6.50;4.00;;;;;;;23.70;33.81;100260.15;129574;1261;115097;-62
2023/05/10 06:49:46;;;;;;;10.70;6.50;;;;;;;23.71;33.70;100256.77;129615;1257;114743;-63
2023/05/10 06:52:48;;;;;;;7.80;4.00;;;;;;;23.84;33.41;100256.15;129450;1277;115324;-62
2023/05/10 06:55:51;;;;;;;6.90;4.80;;;;;;;23.96;33.55;100257.45;129824;1256;114804;-62
2023/05/10 06:58:53;;;;;;;7.00;4.90;;;;;;;24.15;33.47;100260.14;129502;1280;128627;-63
2023/05/10 07:01:56;;;;;;;11.60;6.60;;;;;;;24.39;33.53;100256.49;129465;1261;115221;-64
2023/05/10 07:04:58;;;;;;;4.30;3.90;;;;;;;24.53;32.48;100259.88;129640;1262;114821;-65
2023/05/10 07:08:01;;;;;;;7.00;4.40;;;;;;;24.58;32.02;100255.56;129779;1258;114728;-64
2023/05/10 07:11:07;;;;;;;5.80;3.80;;;;;;;24.65;32.62;100252.78;129827;1257;114993;-64
2023/05/10 07:14:19;;;;;;;10.10;4.10;;;;;;;24.92;32.93;100248.70;129879;1257;114730;-62
2023/05/10 07:17:21;;;;;;;8.60;3.90;;;;;;;25.28;32.87;100249.50;129815;1265;120245;-62
2023/05/10 07:20:24;;;;;;;9.90;3.60;;;;;;;25.60;31.84;100245.88;129730;1275;114863;-62
2023/05/10 07:23:27;;;;;;;8.60;3.70;;;;;;;25.78;31.22;100241.50;129706;1281;114745;-63
2023/05/10 07:26:29;;;;;;;4.50;3.80;;;;;;;25.86;30.11;100242.90;129517;1258;114741;-62
2023/05/10 07:29:33;;;;;;;8.00;3.60;;;;;;;25.78;30.44;100236.28;129593;1277;114734;-63
2023/05/10 07:32:35;;;;;;;11.60;5.20;;;;;;;25.95;30.66;100237.82;129543;1281;114909;-63
2023/05/10 07:35:37;;;;;;;5.20;3.60;;;;;;;26.00;29.75;100234.02;129578;1281;114711;-62
2023/05/10 07:38:40;;;;;;;7.00;4.00;;;;;;;25.93;29.91;100231.66;129816;1274;114834;-64
2023/05/10 07:41:43;;;;;;;9.90;5.00;;;;;;;25.82;29.73;100223.27;129854;1264;114704;-62
2023/05/10 07:44:45;;;;;;;9.00;5.90;;;;;;;25.69;29.33;100221.44;129599;1276;115091;-63
2023/05/10 07:47:47;;;;;;;8.40;3.50;;;;;;;25.62;29.32;100220.09;129684;1277;114707;-64
2023/05/10 07:50:50;;;;;;;4.40;3.50;;;;;;;25.61;29.25;100218.35;129589;1276;114781;-64
2023/05/10 07:53:52;;;;;;;4.90;3.40;;;;;;;25.54;29.31;100214.22;129613;1273;114778;-67
2023/05/10 07:56:54;;;;;;;8.60;2.90;;;;;;;25.51;29.78;100215.25;129606;1261;120216;-63
2023/05/10 07:59:57;;;;;;;6.40;3.50;;;;;;;25.72;30.04;100215.21;129583;1258;114805;-63
2023/05/10 08:02:59;;;;;;;7.70;3.50;;;;;;;25.93;30.31;100210.42;129653;1256;114700;-66
2023/05/10 08:06:02;;;;;;;5.50;4.00;;;;;;;26.12;30.25;100211.40;129422;1281;114911;-66
2023/05/10 08:09:04;;;;;;;9.90;5.30;;;;;;;26.16;29.30;100212.52;129603;1262;115454;-63
2023/05/10 08:12:07;;;;;;;6.10;3.60;;;;;;;26.11;29.78;100208.93;129606;1262;115234;-64
2023/05/10 08:15:10;;;;;;;8.00;4.10;;;;;;;26.10;29.57;100215.45;129675;1264;114751;-66
2023/05/10 08:18:12;;;;;;;6.70;4.00;;;;;;;26.01;29.73;100205.47;129438;1281;119434;-63
2023/05/10 08:21:15;;;;;;;7.00;3.40;;;;;;;26.10;30.02;100209.08;129614;1263;115411;-63
2023/05/10 08:24:17;;;;;;;5.80;3.90;;;;;;;26.12;29.71;100210.44;129640;1258;114708;-64
2023/05/10 08:27:20;;;;;;;6.50;3.90;;;;;;;26.06;30.12;100203.21;129739;1273;114718;-63
2023/05/10 08:30:22;;;;;;;5.10;3.50;;;;;;;26.23;30.46;100202.84;129359;1281;115365;-64
2023/05/10 08:33:24;;;;;;;4.80;3.30;;;;;;;26.28;29.94;100202.73;129562;1264;114706;-63
2023/05/10 08:36:27;;;;;;;5.40;3.30;;;;;;;26.28;30.14;100202.39;129474;1281;114724;-63
2023/05/10 08:39:34;;;;;;;4.70;3.30;;;;;;;26.24;30.05;100201.77;129634;1274;114754;-63
2023/05/10 08:42:40;;;;;;;5.20;3.30;;;;;;;26.26;29.92;100202.95;129437;1281;115440;-67
2023/05/10 08:45:45;;;;;;;6.90;3.30;;;;;;;26.00;29.36;100199.16;129526;1275;116408;-63
2023/05/10 08:48:49;;;;;;;4.10;3.60;;;;;;;25.77;29.94;100197.42;129442;1265;114799;-65
2023/05/10 08:51:54;;;;;;;5.30;3.30;;;;;;;25.76;29.88;100200.83;129529;1262;115412;-66
2023/05/10 08:54:57;;;;;;;7.20;4.70;;;;;;;25.67;29.99;100200.32;129540;1257;120039;-65
2023/05/10 08:58:00;;;;;;;4.70;3.40;;;;;;;25.62;29.83;100198.70;129489;1257;115194;-65
2023/05/10 09:01:03;;;;;;;4.30;3.30;;;;;;;25.26;29.92;100195.80;129506;1259;114716;-64
2023/05/10 09:04:05;;;;;;;6.80;3.10;;;;;;;25.08;30.87;100194.48;129610;1262;114729;-64
2023/05/10 09:07:07;;;;;;;5.40;2.70;;;;;;;25.06;30.45;100196.21;129592;1281;114783;-63
2023/05/10 09:10:11;;;;;;;3.40;2.60;;;;;;;24.99;30.82;100197.44;129488;1278;114748;-63
2023/05/10 09:13:15;;;;;;;5.40;3.00;;;;;;;24.96;30.36;100195.81;129464;1261;129206;-62
2023/05/10 09:16:17;;;;;;;10.80;3.10;;;;;;;24.72;30.36;100199.07;129480;1281;115246;-66
2023/05/10 09:19:19;;;;;;;3.50;2.90;;;;;;;24.58;30.98;100195.48;129507;1258;114745;-65
2023/05/10 09:22:22;;;;;;;5.90;2.70;;;;;;;24.59;30.90;100195.34;129442;1258;114780;-63
2023/05/10 09:25:24;;;;;;;6.60;3.00;;;;;;;24.43;30.56;100200.20;129489;1281;114844;-64
2023/05/10 09:28:26;;;;;;;5.20;2.60;;;;;;;24.04;30.55;100194.81;129393;1272;114781;-63
2023/05/10 09:31:46;;;;;;;16.50;10.00;;;;;;;23.83;31.22;100204.65;129507;1264;114727;-64
2023/05/10 09:34:49;;;;;;;4.20;3.80;;;;;;;23.52;31.38;100202.67;129508;1281;115196;-63
2023/05/10 09:37:53;;;;;;;5.30;2.80;;;;;;;23.39;31.51;100205.84;129589;1258;114726;-64
2023/05/10 09:40:57;;;;;;;3.90;2.90;;;;;;;23.30;31.66;100205.69;129528;1272;114634;-63
2023/05/10 09:43:59;;;;;;;4.50;3.20;;;;;;;23.12;31.79;100206.61;129536;1281;115241;-65
2023/05/10 09:47:02;;;;;;;5.80;3.10;;;;;;;22.91;32.20;100204.80;129461;1281;114758;-63
2023/05/10 09:50:06;;;;;;;3.60;3.00;;;;;;;22.72;32.43;100205.21;129470;1281;114736;-63
2023/05/10 09:53:08;;;;;;;5.10;3.00;;;;;;;22.58;32.79;100208.61;129700;1258;115091;-66
2023/05/10 09:56:10;;;;;;;6.40;3.80;;;;;;;22.39;33.26;100203.30;129760;1281;114802;-63
2023/05/10 09:59:13;;;;;;;4.70;2.70;;;;;;;22.18;32.82;100195.52;129708;1281;114824;-65
2023/05/10 10:02:15;;;;;;;3.70;3.00;;;;;;;21.95;33.08;100199.96;129595;1257;114918;-64
2023/05/10 10:05:18;;;;;;;6.10;3.40;;;;;;;21.76;33.34;100192.55;129954;1261;114741;-70
2023/05/10 10:08:21;;;;;;;4.10;3.30;;;;;;;21.57;33.46;100189.56;129653;1261;114729;-64
2023/05/10 10:11:41;;;;;;;5.60;3.20;;;;;;;21.44;33.89;100196.95;129621;1261;114795;-71
2023/05/10 10:14:50;;;;;;;4.00;3.00;;;;;;;21.42;33.95;100185.14;129466;1262;115181;-71
2023/05/10 10:17:53;;;;;;;3.90;2.90;;;;;;;21.38;34.25;100176.44;129585;1280;114715;-71
2023/05/10 10:20:56;;;;;;;3.80;2.70;;;;;;;21.39;34.37;100183.02;129626;1274;128811;-69
2023/05/10 10:23:58;;;;;;;7.60;2.90;;;;;;;21.37;34.17;100177.27;129654;1262;114728;-68
2023/05/10 10:27:28;;;;;;;3.80;2.80;;;;;;;21.13;34.08;100175.03;129442;1281;116257;-68
2023/05/10 10:30:48;;;;;;;3.50;2.60;;;;;;;20.96;34.78;100169.54;129204;1267;114839;-69
2023/05/10 10:34:04;;;;;;;4.50;3.00;;;;;;;21.01;35.24;100173.80;129080;1271;114916;-70
2023/05/10 10:37:06;;;;;;;2.80;2.60;;;;;;;21.08;34.91;100172.00;129096;1286;130002;-68
2023/05/10 10:40:30;;;;;;;4.60;2.80;;;;;;;21.12;35.21;100168.06;129139;1286;114902;-71
2023/05/10 10:43:32;;;;;;;7.50;2.90;;;;;;;21.21;35.46;100175.36;129145;1273;115326;-66
2023/05/10 10:47:24;;;;;;;5.40;3.00;;;;;;;21.28;35.13;100169.98;129260;1264;114860;-70
2023/05/10 10:50:27;;;;;;;3.10;2.80;;;;;;;21.26;35.25;100170.91;129157;1281;114764;-71
2023/05/10 10:53:30;;;;;;;5.50;2.70;;;;;;;21.24;34.94;100165.39;129276;1285;114888;-70
2023/05/10 10:56:33;;;;;;;4.80;2.80;;;;;;;21.18;34.71;100164.72;129350;1266;115189;-70
2023/05/10 10:59:36;;;;;;;5.40;2.90;;;;;;;20.99;34.73;100169.67;129205;1281;114953;-72
2023/05/10 11:02:41;;;;;;;7.90;2.90;;;;;;;20.85;34.95;100165.35;129234;1267;114917;-72
2023/05/10 11:05:46;;;;;;;6.40;2.60;;;;;;;20.79;35.13;100164.28;129187;1284;114904;-70
2023/05/10 11:08:49;;;;;;;3.70;2.80;;;;;;;20.75;35.69;100163.88;129318;1281;127743;-71
2023/05/10 11:11:54;;;;;;;3.70;2.90;;;;;;;20.81;35.61;100171.20;129592;1274;115219;-72
2023/05/10 11:14:57;;;;;;;7.20;3.10;;;;;;;20.81;35.56;100161.20;129496;1264;115144;-69
2023/05/10 11:18:21;;;;;;;4.00;2.60;;;;;;;20.79;35.63;100155.73;129588;1258;114750;-69
2023/05/10 11:21:23;;;;;;;5.30;3.40;;;;;;;20.75;35.90;100157.17;129416;1281;114828;-73
2023/05/10 11:24:27;;;;;;;3.60;3.10;;;;;;;20.73;35.50;100162.83;129587;1280;114732;-73
2023/05/10 11:27:30;;;;;;;3.50;2.70;;;;;;;20.73;35.71;100157.51;129445;1261;114921;-72
2023/05/10 11:30:33;;;;;;;4.10;2.20;;;;;;;20.85;35.68;100157.39;129697;1281;114729;-71
2023/05/10 11:33:45;;;;;;;4.30;3.00;;;;;;;20.96;35.69;100155.01;129740;1281;114741;-69
2023/05/10 11:36:53;;;;;;;57.90;7.70;;;;;;;21.04;35.49;100154.88;129580;1269;114950;-73
2023/05/10 11:39:56;;;;;;;4.50;2.80;;;;;;;21.13;35.57;100146.56;129489;1264;129149;-72
2023/05/10 11:42:59;;;;;;;3.50;2.90;;;;;;;21.28;35.77;100146.73;129491;1262;114721;-70
2023/05/10 11:46:01;;;;;;;16.50;4.00;;;;;;;21.38;35.15;100146.48;129470;1261;114902;-74
2023/05/10 11:49:07;;;;;;;10.70;3.20;;;;;;;21.40;35.24;100147.88;129415;1263;115453;-68
2023/05/10 11:52:11;;;;;;;5.40;3.60;;;;;;;21.41;35.10;100146.77;129373;1280;114912;-71
2023/05/10 11:55:13;;;;;;;7.50;2.80;;;;;;;21.44;35.20;100138.63;129486;1282;127804;-72
2023/05/10 11:58:18;;;;;;;3.90;3.00;;;;;;;21.49;34.84;100150.91;129601;1282;114720;-69
2023/05/10 12:01:21;;;;;;;4.10;2.30;;;;;;;21.41;34.72;100143.97;129338;1268;115378;-73
2023/05/10 12:04:24;;;;;;;5.50;3.80;;;;;;;21.25;34.85;100141.38;129588;1263;116158;-72
2023/05/10 12:07:27;;;;;;;6.40;2.80;;;;;;;21.13;34.87;100135.60;129268;1264;115199;-72
2023/05/10 12:10:34;;;;;;;14.30;2.10;;;;;;;21.13;35.19;100138.87;129539;1274;128034;-66
2023/05/10 12:13:40;;;;;;;5.40;3.10;;;;;;;21.11;34.90;100142.52;129483;1281;115153;-66
2023/05/10 12:16:43;;;;;;;2.80;2.30;;;;;;;21.01;34.60;100142.59;129765;1264;115083;-68
2023/05/10 12:19:46;;;;;;;3.80;2.30;;;;;;;20.91;35.00;100149.33;129792;1261;114821;-63
2023/05/10 12:22:53;;;;;;;5.80;3.00;;;;;;;20.87;35.39;100151.05;129700;1281;115173;-64
2023/05/10 12:26:03;;;;;;;3.00;2.30;;;;;;;20.82;35.04;100150.39;129600;1257;129103;-63
2023/05/10 12:29:15;;;;;;;3.30;2.50;;;;;;;20.76;35.21;100141.13;129743;1281;115257;-64
2023/05/10 12:32:17;;;;;;;3.30;2.40;;;;;;;20.77;35.40;100137.96;129835;1280;114719;-65
2023/05/10 12:35:23;;;;;;;7.80;3.40;;;;;;;20.76;35.30;100144.09;129645;1262;114780;-67
2023/05/10 12:38:42;;;;;;;7.30;3.00;;;;;;;20.75;34.97;100146.35;129548;1262;114809;-66
2023/05/10 12:41:44;;;;;;;5.40;2.80;;;;;;;20.70;34.76;100145.66;129580;1281;127672;-67
2023/05/10 12:44:47;;;;;;;6.90;3.60;;;;;;;20.64;34.61;100142.91;129588;1275;115111;-65
2023/05/10 12:47:49;;;;;;;3.80;2.60;;;;;;;20.64;34.89;100138.80;129562;1274;114796;-72
2023/05/10 12:50:53;;;;;;;5.20;2.30;;;;;;;20.75;35.11;100138.50;129630;1263;114778;-72
2023/05/10 12:53:55;;;;;;;7.50;2.50;;;;;;;20.92;35.38;100134.79;129840;1263;115094;-71
2023/05/10 12:56:58;;;;;;;3.10;1.90;;;;;;;21.10;35.20;100135.02;129516;1278;114796;-67
2023/05/10 13:00:00;;;;;;;7.80;4.40;;;;;;;21.26;35.09;100137.63;129592;1259;128995;-70
2023/05/10 13:03:03;;;;;;;2.90;2.60;;;;;;;21.38;34.82;100137.02;129648;1264;114752;-64
2023/05/10 13:06:09;;;;;;;3.30;2.00;;;;;;;21.40;33.94;100138.07;129569;1275;115168;-66
2023/05/10 13:09:12;;;;;;;2.80;2.30;;;;;;;21.37;34.07;100130.91;129550;1277;114782;-68
2023/05/10 13:12:15;;;;;;;3.00;2.00;;;;;;;21.38;33.92;100131.53;129186;1264;503283;-70
2023/05/10 13:15:17;;;;;;;3.90;2.10;;;;;;;21.37;34.00;100133.15;129789;1262;114688;-64
2023/05/10 13:18:20;;;;;;;7.50;2.00;;;;;;;21.33;33.76;100136.99;129658;1278;114704;-63
2023/05/10 13:21:24;;;;;;;4.80;1.80;;;;;;;21.37;34.14;100132.21;129316;1281;116683;-70
2023/05/10 13:24:26;;;;;;;4.90;1.70;;;;;;;21.52;33.78;100122.03;129482;1265;114868;-65
2023/05/10 13:27:29;;;;;;;2.50;1.50;;;;;;;21.60;33.46;100113.27;129630;1262;114725;-64
2023/05/10 13:30:31;;;;;;;2.20;1.60;;;;;;;21.74;33.81;100124.63;129572;1262;115180;-68
2023/05/10 13:33:34;;;;;;;5.70;4.20;;;;;;;21.89;33.75;100124.62;129993;1281;114870;-66
2023/05/10 13:36:37;;;;;;;2.30;1.80;;;;;;;21.95;33.38;100122.02;129636;1281;128958;-66
2023/05/10 13:39:40;;;;;;;4.90;2.00;;;;;;;21.94;33.03;100121.56;129598;1259;115161;-69
2023/05/10 13:42:43;;;;;;;7.20;2.20;;;;;;;21.83;33.10;100123.19;129528;1262;114799;-68
2023/05/10 13:45:46;;;;;;;7.60;1.90;;;;;;;21.73;33.10;100124.52;129426;1264;114814;-72
2023/05/10 13:48:48;;;;;;;6.50;5.30;;;;;;;21.66;32.89;100117.92;129534;1265;114705;-67
2023/05/10 13:51:51;;;;;;;3.20;2.70;;;;;;;21.64;33.17;100110.31;129509;1265;114849;-71
2023/05/10 13:54:55;;;;;;;4.40;1.80;;;;;;;21.73;33.25;100109.83;129589;1264;127828;-71
2023/05/10 13:57:58;;;;;;;2.50;1.80;;;;;;;21.79;33.14;100099.79;129349;1265;115251;-64